Aviation Digital Data Service (ADDS)

Output produced by METARs form (2058 UTC 20 October 2018)
found at http://www.aviationweather.gov/metar/data/
 
METAR text: KHAE 202055Z AUTO 30020G28KT 10SM CLR 15/M06 A3019 RMK AO2
Conditions at: KHAE (HANNIBAL , MO, US) observed 2055 UTC 20 October 2018
Temperature: 15.0°C (59°F)
Dewpoint: -6.0°C (21°F) [RH = 23%]
Pressure (altimeter): 30.19 inches Hg (1022.4 mb)
Winds: from the WNW (300 degrees) at 23 MPH (20 knots; 10.3 m/s)
gusting to 32 MPH (28 knots; 14.4 m/s)
Visibility: 10 or more miles (16+ km)
Ceiling: at least 12,000 feet AGL
Clouds: sky clear below 12,000 feet AGL
Weather: automated observation with no human augmentation;
there may or may not be significant weather present at this time